sensor_id;sensor_type;location;lat;lon;timestamp;pressure;altitude;pressure_sealevel;temperature;humidity
5522;BME280;2783;48.730;8.006;2024-01-10T00:02:03;101048.22;;;-0.58;64.78
5522;BME280;2783;48.730;8.006;2024-01-10T00:04:29;101041.22;;;-0.59;64.45
5522;BME280;2783;48.730;8.006;2024-01-10T00:06:54;101053.63;;;-0.52;64.31
5522;BME280;2783;48.730;8.006;2024-01-10T00:09:20;101024.59;;;-0.61;63.75
5522;BME280;2783;48.730;8.006;2024-01-10T00:11:45;101037.00;;;-0.54;64.14
5522;BME280;2783;48.730;8.006;2024-01-10T00:14:10;101038.03;;;-0.49;62.62
5522;BME280;2783;48.730;8.006;2024-01-10T00:16:36;101031.03;;;-0.50;62.78
5522;BME280;2783;48.730;8.006;2024-01-10T00:19:02;101039.63;;;-0.54;62.49
5522;BME280;2783;48.730;8.006;2024-01-10T00:21:27;101024.81;;;-0.55;62.85
5522;BME280;2783;48.730;8.006;2024-01-10T00:23:53;101014.19;;;-0.59;62.31
5522;BME280;2783;48.730;8.006;2024-01-10T00:26:18;101019.34;;;-0.62;62.12
5522;BME280;2783;48.730;8.006;2024-01-10T00:28:44;101016.03;;;-0.57;62.06
5522;BME280;2783;48.730;8.006;2024-01-10T00:31:12;101011.75;;;-0.55;61.73
5522;BME280;2783;48.730;8.006;2024-01-10T00:33:37;101010.81;;;-0.57;61.44
5522;BME280;2783;48.730;8.006;2024-01-10T00:36:02;101007.34;;;-0.56;62.02
5522;BME280;2783;48.730;8.006;2024-01-10T00:38:28;101009.88;;;-0.59;62.35
5522;BME280;2783;48.730;8.006;2024-01-10T00:40:53;101013.50;;;-0.54;61.83
5522;BME280;2783;48.730;8.006;2024-01-10T00:43:19;101010.03;;;-0.53;61.62
5522;BME280;2783;48.730;8.006;2024-01-10T00:45:44;101003.94;;;-0.53;62.54
5522;BME280;2783;48.730;8.006;2024-01-10T00:48:09;100962.47;;;-0.72;62.62
5522;BME280;2783;48.730;8.006;2024-01-10T00:50:35;101007.72;;;-0.42;62.94
5522;BME280;2783;48.730;8.006;2024-01-10T00:53:00;101010.38;;;-0.41;62.87
5522;BME280;2783;48.730;8.006;2024-01-10T00:55:26;101004.38;;;-0.37;62.30
5522;BME280;2783;48.730;8.006;2024-01-10T00:57:51;101010.63;;;-0.32;62.57
5522;BME280;2783;48.730;8.006;2024-01-10T01:00:16;101006.22;;;-0.33;62.60
5522;BME280;2783;48.730;8.006;2024-01-10T01:02:42;100919.56;;;-0.82;62.94
5522;BME280;2783;48.730;8.006;2024-01-10T01:05:07;101004.53;;;-0.31;63.42
5522;BME280;2783;48.730;8.006;2024-01-10T01:07:33;101003.88;;;-0.24;63.13
5522;BME280;2783;48.730;8.006;2024-01-10T01:09:59;100994.31;;;-0.23;63.01
5522;BME280;2783;48.730;8.006;2024-01-10T01:12:25;101001.06;;;-0.30;61.49
5522;BME280;2783;48.730;8.006;2024-01-10T01:14:50;101000.47;;;-0.20;61.44
5522;BME280;2783;48.730;8.006;2024-01-10T01:17:15;100990.00;;;-0.20;62.44
5522;BME280;2783;48.730;8.006;2024-01-10T01:19:41;101002.25;;;-0.19;61.25
5522;BME280;2783;48.730;8.006;2024-01-10T01:22:07;100995.25;;;-0.20;60.66
5522;BME280;2783;48.730;8.006;2024-01-10T01:24:32;100987.44;;;-0.18;60.93
5522;BME280;2783;48.730;8.006;2024-01-10T01:26:57;100998.97;;;-0.12;60.29
5522;BME280;2783;48.730;8.006;2024-01-10T01:29:23;100998.97;;;-0.12;61.21
5522;BME280;2783;48.730;8.006;2024-01-10T01:31:49;101009.47;;;-0.10;60.53
5522;BME280;2783;48.730;8.006;2024-01-10T01:34:15;100991.81;;;-0.19;60.40
5522;BME280;2783;48.730;8.006;2024-01-10T01:36:40;100996.44;;;-0.09;61.35
5522;BME280;2783;48.730;8.006;2024-01-10T01:39:06;101001.72;;;-0.06;61.04
5522;BME280;2783;48.730;8.006;2024-01-10T01:41:31;101006.03;;;-0.08;61.46
5522;BME280;2783;48.730;8.006;2024-01-10T01:43:56;100997.41;;;-0.05;60.50
5522;BME280;2783;48.730;8.006;2024-01-10T01:46:23;101001.88;;;0.00;61.98
5522;BME280;2783;48.730;8.006;2024-01-10T01:48:49;101009.63;;;-0.03;61.23
5522;BME280;2783;48.730;8.006;2024-01-10T01:51:15;101004.31;;;-0.07;61.88
5522;BME280;2783;48.730;8.006;2024-01-10T01:53:44;101007.78;;;-0.07;61.15
5522;BME280;2783;48.730;8.006;2024-01-10T01:56:10;101001.69;;;-0.07;60.37
5522;BME280;2783;48.730;8.006;2024-01-10T01:58:36;101000.78;;;-0.08;61.15
5522;BME280;2783;48.730;8.006;2024-01-10T02:01:03;100997.28;;;-0.08;60.71
5522;BME280;2783;48.730;8.006;2024-01-10T02:03:33;100998.22;;;-0.06;60.22
5522;BME280;2783;48.730;8.006;2024-01-10T02:06:00;100999.03;;;-0.09;61.17
5522;BME280;2783;48.730;8.006;2024-01-10T02:08:34;101002.41;;;-0.13;60.13
5522;BME280;2783;48.730;8.006;2024-01-10T02:11:01;101001.38;;;-0.19;60.61
5522;BME280;2783;48.730;8.006;2024-01-10T02:13:28;101004.88;;;-0.19;60.75
5522;BME280;2783;48.730;8.006;2024-01-10T02:15:54;101000.56;;;-0.17;60.38
5522;BME280;2783;48.730;8.006;2024-01-10T02:18:20;101008.63;;;-0.08;60.68
5522;BME280;2783;48.730;8.006;2024-01-10T02:20:46;101014.69;;;-0.10;60.10
5522;BME280;2783;48.730;8.006;2024-01-10T02:23:12;101005.59;;;-0.24;59.52
5522;BME280;2783;48.730;8.006;2024-01-10T02:25:38;101008.41;;;-0.17;59.88
5522;BME280;2783;48.730;8.006;2024-01-10T02:28:04;101013.00;;;-0.07;60.21
5522;BME280;2783;48.730;8.006;2024-01-10T02:30:30;100960.94;;;-0.33;61.23
5522;BME280;2783;48.730;8.006;2024-01-10T02:32:55;101009.50;;;-0.09;60.14
5522;BME280;2783;48.730;8.006;2024-01-10T02:35:21;101007.84;;;-0.05;60.39
5522;BME280;2783;48.730;8.006;2024-01-10T02:37:46;101008.69;;;-0.06;59.81
5522;BME280;2783;48.730;8.006;2024-01-10T02:40:12;101008.00;;;0.01;59.94
5522;BME280;2783;48.730;8.006;2024-01-10T02:42:39;100932.91;;;-0.39;59.90
5522;BME280;2783;48.730;8.006;2024-01-10T02:45:04;101006.28;;;0.02;60.69
5522;BME280;2783;48.730;8.006;2024-01-10T02:47:30;100961.47;;;-0.12;59.82
5522;BME280;2783;48.730;8.006;2024-01-10T02:49:55;100937.59;;;-0.26;59.50
5522;BME280;2783;48.730;8.006;2024-01-10T02:52:21;100983.50;;;-0.03;59.81
5522;BME280;2783;48.730;8.006;2024-01-10T02:54:46;100954.31;;;-0.19;59.82
5522;BME280;2783;48.730;8.006;2024-01-10T02:57:12;100987.16;;;0.04;59.27
5522;BME280;2783;48.730;8.006;2024-01-10T02:59:38;100992.41;;;0.06;59.33
5522;BME280;2783;48.730;8.006;2024-01-10T03:02:03;100964.13;;;-0.11;59.89
5522;BME280;2783;48.730;8.006;2024-01-10T03:04:29;100994.09;;;0.03;59.37
5522;BME280;2783;48.730;8.006;2024-01-10T03:06:54;100912.03;;;-0.37;59.85
5522;BME280;2783;48.730;8.006;2024-01-10T03:09:20;100995.13;;;0.10;60.42
5522;BME280;2783;48.730;8.006;2024-01-10T03:11:45;100993.44;;;0.12;60.59
5522;BME280;2783;48.730;8.006;2024-01-10T03:14:11;100977.16;;;-0.12;60.20
5522;BME280;2783;48.730;8.006;2024-01-10T03:16:37;101012.44;;;0.05;60.25
5522;BME280;2783;48.730;8.006;2024-01-10T03:19:03;101012.56;;;0.10;60.30
5522;BME280;2783;48.730;8.006;2024-01-10T03:21:29;101011.72;;;0.11;60.09
5522;BME280;2783;48.730;8.006;2024-01-10T03:23:56;100936.66;;;-0.28;60.54
5522;BME280;2783;48.730;8.006;2024-01-10T03:26:22;100995.16;;;0.12;60.32
5522;BME280;2783;48.730;8.006;2024-01-10T03:28:47;101000.53;;;0.16;60.84
5522;BME280;2783;48.730;8.006;2024-01-10T03:31:13;101008.41;;;0.18;61.13
5522;BME280;2783;48.730;8.006;2024-01-10T03:33:39;100995.44;;;0.22;60.98
5522;BME280;2783;48.730;8.006;2024-01-10T03:36:06;100995.50;;;0.25;61.32
5522;BME280;2783;48.730;8.006;2024-01-10T03:38:31;100985.94;;;0.26;60.95
5522;BME280;2783;48.730;8.006;2024-01-10T03:40:57;100997.47;;;0.34;61.26
5522;BME280;2783;48.730;8.006;2024-01-10T03:43:22;100992.22;;;0.34;61.54
5522;BME280;2783;48.730;8.006;2024-01-10T03:45:48;100989.69;;;0.37;61.84
5522;BME280;2783;48.730;8.006;2024-01-10T03:48:13;100993.19;;;0.37;61.64
5522;BME280;2783;48.730;8.006;2024-01-10T03:50:38;101002.72;;;0.35;61.58
5522;BME280;2783;48.730;8.006;2024-01-10T03:53:04;101000.91;;;0.31;61.74
5522;BME280;2783;48.730;8.006;2024-01-10T03:55:29;100998.16;;;0.27;62.00
5522;BME280;2783;48.730;8.006;2024-01-10T03:57:56;100998.97;;;0.24;62.81
5522;BME280;2783;48.730;8.006;2024-01-10T04:00:21;101001.50;;;0.20;62.64
5522;BME280;2783;48.730;8.006;2024-01-10T04:02:47;101003.16;;;0.16;63.08
5522;BME280;2783;48.730;8.006;2024-01-10T04:05:12;101000.47;;;0.13;63.78
5522;BME280;2783;48.730;8.006;2024-01-10T04:07:41;101006.38;;;0.06;63.00
5522;BME280;2783;48.730;8.006;2024-01-10T04:10:09;101005.47;;;0.06;62.75
5522;BME280;2783;48.730;8.006;2024-01-10T04:12:38;101019.41;;;0.05;63.85
5522;BME280;2783;48.730;8.006;2024-01-10T04:15:04;101007.28;;;0.07;63.65
5522;BME280;2783;48.730;8.006;2024-01-10T04:17:30;101009.78;;;0.03;63.87
5522;BME280;2783;48.730;8.006;2024-01-10T04:19:55;100967.94;;;-0.31;62.93
5522;BME280;2783;48.730;8.006;2024-01-10T04:22:21;101004.31;;;-0.07;62.76
5522;BME280;2783;48.730;8.006;2024-01-10T04:24:46;101002.50;;;-0.08;63.01
5522;BME280;2783;48.730;8.006;2024-01-10T04:27:12;101004.19;;;-0.12;63.28
5522;BME280;2783;48.730;8.006;2024-01-10T04:29:37;101008.59;;;-0.09;63.92
5522;BME280;2783;48.730;8.006;2024-01-10T04:32:03;101003.38;;;-0.09;63.68
5522;BME280;2783;48.730;8.006;2024-01-10T04:34:29;101003.38;;;-0.09;63.51
5522;BME280;2783;48.730;8.006;2024-01-10T04:36:54;101002.56;;;-0.07;63.64
5522;BME280;2783;48.730;8.006;2024-01-10T04:39:19;100910.66;;;-0.56;63.68
5522;BME280;2783;48.730;8.006;2024-01-10T04:41:45;100943.34;;;-0.39;63.36
5522;BME280;2783;48.730;8.006;2024-01-10T04:44:10;101002.41;;;-0.13;63.10
5522;BME280;2783;48.730;8.006;2024-01-10T04:46:36;101004.28;;;-0.09;63.11
5522;BME280;2783;48.730;8.006;2024-01-10T04:49:01;101005.09;;;-0.10;63.66
5522;BME280;2783;48.730;8.006;2024-01-10T04:51:27;101000.78;;;-0.08;64.36
5522;BME280;2783;48.730;8.006;2024-01-10T04:53:52;100993.81;;;-0.09;63.96
5522;BME280;2783;48.730;8.006;2024-01-10T04:56:18;100999.91;;;-0.08;63.36
5522;BME280;2783;48.730;8.006;2024-01-10T04:58:43;100995.50;;;-0.11;64.04
5522;BME280;2783;48.730;8.006;2024-01-10T05:01:09;100965.19;;;-0.37;64.19
5522;BME280;2783;48.730;8.006;2024-01-10T05:03:35;101000.66;;;-0.14;63.55
5522;BME280;2783;48.730;8.006;2024-01-10T05:06:00;100990.94;;;-0.18;63.72
5522;BME280;2783;48.730;8.006;2024-01-10T05:08:26;100967.84;;;-0.35;64.76
5522;BME280;2783;48.730;8.006;2024-01-10T05:10:51;101003.94;;;-0.21;63.39
5522;BME280;2783;48.730;8.006;2024-01-10T05:13:17;101010.13;;;-0.17;63.71
5522;BME280;2783;48.730;8.006;2024-01-10T05:15:42;101002.28;;;-0.17;64.22
5522;BME280;2783;48.730;8.006;2024-01-10T05:18:08;100997.03;;;-0.19;63.72
5522;BME280;2783;48.730;8.006;2024-01-10T05:20:33;100994.41;;;-0.19;64.22
5522;BME280;2783;48.730;8.006;2024-01-10T05:22:59;100998.81;;;-0.16;64.72
5522;BME280;2783;48.730;8.006;2024-01-10T05:25:24;100995.25;;;-0.20;64.53
5522;BME280;2783;48.730;8.006;2024-01-10T05:27:50;100992.59;;;-0.21;65.00
5522;BME280;2783;48.730;8.006;2024-01-10T05:30:15;101009.03;;;-0.27;64.21
5522;BME280;2783;48.730;8.006;2024-01-10T05:32:41;101000.31;;;-0.26;63.98
5522;BME280;2783;48.730;8.006;2024-01-10T05:35:08;101001.16;;;-0.28;65.64
5522;BME280;2783;48.730;8.006;2024-01-10T05:37:35;100916.03;;;-0.82;65.21
5522;BME280;2783;48.730;8.006;2024-01-10T05:40:01;101010.47;;;-0.36;66.24
5522;BME280;2783;48.730;8.006;2024-01-10T05:42:26;101005.09;;;-0.42;66.04
5522;BME280;2783;48.730;8.006;2024-01-10T05:44:52;100999.75;;;-0.47;65.96
5522;BME280;2783;48.730;8.006;2024-01-10T05:47:17;100996.28;;;-0.46;66.41
5522;BME280;2783;48.730;8.006;2024-01-10T05:49:43;100995.25;;;-0.52;65.69
5522;BME280;2783;48.730;8.006;2024-01-10T05:52:09;101001.94;;;-0.62;65.11
5522;BME280;2783;48.730;8.006;2024-01-10T05:54:34;100999.31;;;-0.63;66.75
5522;BME280;2783;48.730;8.006;2024-01-10T05:56:59;100999.19;;;-0.68;67.23
5522;BME280;2783;48.730;8.006;2024-01-10T05:59:28;101013.97;;;-0.68;66.69
5522;BME280;2783;48.730;8.006;2024-01-10T06:01:54;101007.69;;;-0.75;67.92
5522;BME280;2783;48.730;8.006;2024-01-10T06:04:19;101008.41;;;-0.79;68.34
5522;BME280;2783;48.730;8.006;2024-01-10T06:06:44;101003.13;;;-0.82;68.72
5522;BME280;2783;48.730;8.006;2024-01-10T06:09:10;101001.22;;;-0.87;68.81
5522;BME280;2783;48.730;8.006;2024-01-10T06:11:45;100996.78;;;-0.90;69.43
5522;BME280;2783;48.730;8.006;2024-01-10T06:14:10;101002.63;;;-0.98;70.02
5522;BME280;2783;48.730;8.006;2024-01-10T06:16:35;100999.91;;;-1.03;69.84
5522;BME280;2783;48.730;8.006;2024-01-10T06:19:01;100988.31;;;-1.12;69.92
5522;BME280;2783;48.730;8.006;2024-01-10T06:21:26;101000.47;;;-1.13;70.53
5522;BME280;2783;48.730;8.006;2024-01-10T06:23:52;100989.84;;;-1.19;71.01
5522;BME280;2783;48.730;8.006;2024-01-10T06:26:17;101007.28;;;-1.18;72.32
5522;BME280;2783;48.730;8.006;2024-01-10T06:28:43;101012.41;;;-1.21;72.29
5522;BME280;2783;48.730;8.006;2024-01-10T06:31:08;101011.47;;;-1.23;72.65
5522;BME280;2783;48.730;8.006;2024-01-10T06:33:34;101016.59;;;-1.26;72.32
5522;BME280;2783;48.730;8.006;2024-01-10T06:35:59;101017.41;;;-1.28;72.58
5522;BME280;2783;48.730;8.006;2024-01-10T06:38:24;101029.47;;;-1.32;73.13
5522;BME280;2783;48.730;8.006;2024-01-10T06:40:50;101023.31;;;-1.34;73.19
5522;BME280;2783;48.730;8.006;2024-01-10T06:43:16;101026.56;;;-1.41;73.24
5522;BME280;2783;48.730;8.006;2024-01-10T06:45:41;101022.97;;;-1.45;74.39
5522;BME280;2783;48.730;8.006;2024-01-10T06:48:07;101032.47;;;-1.47;74.32
5522;BME280;2783;48.730;8.006;2024-01-10T06:50:33;101032.19;;;-1.56;74.91
5522;BME280;2783;48.730;8.006;2024-01-10T06:52:59;101029.44;;;-1.60;75.35
5522;BME280;2783;48.730;8.006;2024-01-10T06:55:24;101012.50;;;-1.73;75.47
5522;BME280;2783;48.730;8.006;2024-01-10T06:57:50;101038.00;;;-1.64;75.97
5522;BME280;2783;48.730;8.006;2024-01-10T07:00:20;101029.03;;;-1.72;76.40
5522;BME280;2783;48.730;8.006;2024-01-10T07:02:46;100951.75;;;-2.23;76.61
5522;BME280;2783;48.730;8.006;2024-01-10T07:05:12;101039.41;;;-1.74;77.29
5522;BME280;2783;48.730;8.006;2024-01-10T07:07:37;101042.94;;;-1.73;76.97
5522;BME280;2783;48.730;8.006;2024-01-10T07:10:03;101025.97;;;-1.86;76.48
5522;BME280;2783;48.730;8.006;2024-01-10T07:12:33;101040.09;;;-1.79;77.26
5522;BME280;2783;48.730;8.006;2024-01-10T07:14:58;101040.16;;;-1.78;77.64
5522;BME280;2783;48.730;8.006;2024-01-10T07:17:24;101041.84;;;-1.80;77.62
5522;BME280;2783;48.730;8.006;2024-01-10T07:19:49;101048.75;;;-1.80;77.39
5522;BME280;2783;48.730;8.006;2024-01-10T07:22:15;101050.44;;;-1.82;77.89
5522;BME280;2783;48.730;8.006;2024-01-10T07:24:40;101055.53;;;-1.85;77.65
5522;BME280;2783;48.730;8.006;2024-01-10T07:27:06;101061.53;;;-1.88;78.10
5522;BME280;2783;48.730;8.006;2024-01-10T07:29:34;101056.25;;;-1.89;78.44
5522;BME280;2783;48.730;8.006;2024-01-10T07:32:00;101050.97;;;-1.92;78.52
5522;BME280;2783;48.730;8.006;2024-01-10T07:34:25;101059.63;;;-1.93;78.57
5522;BME280;2783;48.730;8.006;2024-01-10T07:36:51;101065.72;;;-1.93;78.65
5522;BME280;2783;48.730;8.006;2024-01-10T07:39:17;101057.72;;;-1.97;79.37
5522;BME280;2783;48.730;8.006;2024-01-10T07:41:46;101070.94;;;-1.93;79.12
5522;BME280;2783;48.730;8.006;2024-01-10T07:44:11;101071.81;;;-1.92;79.94
5522;BME280;2783;48.730;8.006;2024-01-10T07:46:37;101020.56;;;-2.17;80.19
5522;BME280;2783;48.730;8.006;2024-01-10T07:49:06;101072.03;;;-1.86;80.36
5522;BME280;2783;48.730;8.006;2024-01-10T07:51:31;101078.34;;;-1.80;80.35
5522;BME280;2783;48.730;8.006;2024-01-10T07:53:58;101078.44;;;-1.77;80.30
5522;BME280;2783;48.730;8.006;2024-01-10T07:56:24;101087.31;;;-1.72;80.04
5522;BME280;2783;48.730;8.006;2024-01-10T07:58:49;101085.72;;;-1.67;80.49
5522;BME280;2783;48.730;8.006;2024-01-10T08:01:16;101044.81;;;-1.68;82.22
5522;BME280;2783;48.730;8.006;2024-01-10T08:03:42;101068.88;;;-0.95;83.31
5522;BME280;2783;48.730;8.006;2024-01-10T08:06:07;101066.28;;;-0.65;80.69
5522;BME280;2783;48.730;8.006;2024-01-10T08:08:33;101068.88;;;-0.36;79.99
5522;BME280;2783;48.730;8.006;2024-01-10T08:10:58;101072.25;;;-0.09;78.50
5522;BME280;2783;48.730;8.006;2024-01-10T08:13:24;101064.84;;;0.08;78.03
5522;BME280;2783;48.730;8.006;2024-01-10T08:15:49;101065.50;;;0.34;76.68
5522;BME280;2783;48.730;8.006;2024-01-10T08:18:15;101054.53;;;0.50;73.71
5522;BME280;2783;48.730;8.006;2024-01-10T08:20:40;101070.56;;;0.62;71.21
5522;BME280;2783;48.730;8.006;2024-01-10T08:23:06;101076.84;;;0.34;70.10
5522;BME280;2783;48.730;8.006;2024-01-10T08:25:31;100987.72;;;-0.42;69.73
5522;BME280;2783;48.730;8.006;2024-01-10T08:27:56;101081.19;;;-0.01;69.92
5522;BME280;2783;48.730;8.006;2024-01-10T08:30:23;101088.84;;;-0.07;70.35
5522;BME280;2783;48.730;8.006;2024-01-10T08:32:50;101013.16;;;-0.66;70.69
5522;BME280;2783;48.730;8.006;2024-01-10T08:35:15;101086.88;;;-0.15;70.93
5522;BME280;2783;48.730;8.006;2024-01-10T08:37:41;101092.91;;;-0.18;70.78
5522;BME280;2783;48.730;8.006;2024-01-10T08:40:11;101095.63;;;-0.13;71.52
5522;BME280;2783;48.730;8.006;2024-01-10T08:42:40;101087.97;;;-0.07;71.24
5522;BME280;2783;48.730;8.006;2024-01-10T08:45:06;101057.31;;;-0.13;71.76
5522;BME280;2783;48.730;8.006;2024-01-10T08:47:34;101083.47;;;0.22;70.85
5522;BME280;2783;48.730;8.006;2024-01-10T08:50:01;101000.56;;;-0.17;69.97
5522;BME280;2783;48.730;8.006;2024-01-10T08:52:27;101083.50;;;0.56;70.23
5522;BME280;2783;48.730;8.006;2024-01-10T08:54:52;101077.91;;;0.78;70.42
5522;BME280;2783;48.730;8.006;2024-01-10T08:57:18;101083.84;;;1.08;69.89
5522;BME280;2783;48.730;8.006;2024-01-10T08:59:43;101087.78;;;2.16;69.95
5522;BME280;2783;48.730;8.006;2024-01-10T09:02:09;101075.09;;;4.39;63.62
5522;BME280;2783;48.730;8.006;2024-01-10T09:04:35;101070.00;;;6.47;54.67
5522;BME280;2783;48.730;8.006;2024-01-10T09:07:00;101071.28;;;8.29;47.99
5522;BME280;2783;48.730;8.006;2024-01-10T09:09:25;101032.41;;;9.25;44.73
5522;BME280;2783;48.730;8.006;2024-01-10T09:11:51;101076.97;;;10.38;42.11
5522;BME280;2783;48.730;8.006;2024-01-10T09:14:16;101049.78;;;10.20;39.80
5522;BME280;2783;48.730;8.006;2024-01-10T09:16:42;101087.03;;;10.18;39.95
5522;BME280;2783;48.730;8.006;2024-01-10T09:19:07;101086.16;;;10.18;39.07
5522;BME280;2783;48.730;8.006;2024-01-10T09:21:33;101075.56;;;10.16;39.38
5522;BME280;2783;48.730;8.006;2024-01-10T09:23:58;101083.06;;;9.81;39.03
5522;BME280;2783;48.730;8.006;2024-01-10T09:26:24;101087.91;;;9.46;39.15
5522;BME280;2783;48.730;8.006;2024-01-10T09:28:49;101087.72;;;9.63;39.86
5522;BME280;2783;48.730;8.006;2024-01-10T09:31:15;101083.75;;;10.60;38.87
5522;BME280;2783;48.730;8.006;2024-01-10T09:33:40;101083.44;;;11.76;37.01
5522;BME280;2783;48.730;8.006;2024-01-10T09:36:06;101071.13;;;12.85;35.76
5522;BME280;2783;48.730;8.006;2024-01-10T09:38:36;101077.88;;;13.01;34.85
5522;BME280;2783;48.730;8.006;2024-01-10T09:41:03;101084.38;;;13.57;33.06
5522;BME280;2783;48.730;8.006;2024-01-10T09:43:32;101086.16;;;12.89;33.94
5522;BME280;2783;48.730;8.006;2024-01-10T09:46:01;101100.63;;;12.04;34.14
5522;BME280;2783;48.730;8.006;2024-01-10T09:48:30;101062.63;;;11.49;35.24
5522;BME280;2783;48.730;8.006;2024-01-10T09:50:56;101092.06;;;11.43;35.54
5522;BME280;2783;48.730;8.006;2024-01-10T09:53:23;101092.59;;;11.13;34.87
5522;BME280;2783;48.730;8.006;2024-01-10T09:55:49;101091.97;;;10.99;36.35
5522;BME280;2783;48.730;8.006;2024-01-10T09:58:15;101096.25;;;11.56;35.83
5522;BME280;2783;48.730;8.006;2024-01-10T10:00:40;101099.75;;;11.58;35.69
5522;BME280;2783;48.730;8.006;2024-01-10T10:03:10;101093.28;;;11.24;35.78
5522;BME280;2783;48.730;8.006;2024-01-10T10:05:39;101092.13;;;10.90;36.20
5522;BME280;2783;48.730;8.006;2024-01-10T10:08:08;101070.41;;;10.62;37.06
5522;BME280;2783;48.730;8.006;2024-01-10T10:10:35;101099.53;;;10.71;36.42
5522;BME280;2783;48.730;8.006;2024-01-10T10:13:00;101098.53;;;10.78;35.99
5522;BME280;2783;48.730;8.006;2024-01-10T10:15:26;101076.94;;;10.41;36.92
5522;BME280;2783;48.730;8.006;2024-01-10T10:17:52;101088.69;;;11.33;36.02
5522;BME280;2783;48.730;8.006;2024-01-10T10:20:26;101094.53;;;11.98;35.07
5522;BME280;2783;48.730;8.006;2024-01-10T10:25:29;101094.81;;;12.98;33.22
5522;BME280;2783;48.730;8.006;2024-01-10T10:27:56;101061.72;;;13.05;33.43
5522;BME280;2783;48.730;8.006;2024-01-10T10:30:21;101091.22;;;13.67;32.38
5522;BME280;2783;48.730;8.006;2024-01-10T10:32:47;101105.34;;;13.72;31.44
5522;BME280;2783;48.730;8.006;2024-01-10T10:35:13;101083.69;;;12.45;33.24
5522;BME280;2783;48.730;8.006;2024-01-10T10:37:38;101106.19;;;12.71;33.17
5522;BME280;2783;48.730;8.006;2024-01-10T10:40:05;101084.66;;;12.77;33.09
5522;BME280;2783;48.730;8.006;2024-01-10T10:42:31;101100.81;;;13.09;33.32
5522;BME280;2783;48.730;8.006;2024-01-10T10:45:02;101071.06;;;13.21;32.58
5522;BME280;2783;48.730;8.006;2024-01-10T10:47:36;101098.31;;;13.36;32.41
5522;BME280;2783;48.730;8.006;2024-01-10T10:50:03;101038.81;;;12.24;32.45
5522;BME280;2783;48.730;8.006;2024-01-10T10:52:30;101089.78;;;12.50;32.98
5522;BME280;2783;48.730;8.006;2024-01-10T10:54:58;101097.19;;;12.37;34.14
5522;BME280;2783;48.730;8.006;2024-01-10T10:57:25;101066.50;;;12.56;33.17
5522;BME280;2783;48.730;8.006;2024-01-10T10:59:53;101052.88;;;12.68;33.33
5522;BME280;2783;48.730;8.006;2024-01-10T11:02:21;101082.00;;;12.77;33.35
5522;BME280;2783;48.730;8.006;2024-01-10T11:04:50;101085.22;;;12.90;33.75
5522;BME280;2783;48.730;8.006;2024-01-10T11:07:15;101090.44;;;12.96;33.26
5522;BME280;2783;48.730;8.006;2024-01-10T11:09:43;101087.09;;;13.21;32.59
5522;BME280;2783;48.730;8.006;2024-01-10T11:17:44;101091.59;;;13.53;33.29
5522;BME280;2783;48.730;8.006;2024-01-10T11:23:32;101092.88;;;13.71;32.18
5522;BME280;2783;48.730;8.006;2024-01-10T11:26:02;101088.69;;;13.61;31.64
5522;BME280;2783;48.730;8.006;2024-01-10T11:28:31;101089.34;;;13.04;32.97
5522;BME280;2783;48.730;8.006;2024-01-10T11:30:56;101092.25;;;12.57;33.25
5522;BME280;2783;48.730;8.006;2024-01-10T11:33:37;101084.84;;;12.33;33.69
5522;BME280;2783;48.730;8.006;2024-01-10T11:36:10;101048.94;;;11.23;34.11
5522;BME280;2783;48.730;8.006;2024-01-10T11:38:42;101086.34;;;11.14;35.97
5522;BME280;2783;48.730;8.006;2024-01-10T11:41:12;101044.47;;;10.75;35.67
5522;BME280;2783;48.730;8.006;2024-01-10T11:43:38;101086.84;;;10.87;35.12
5522;BME280;2783;48.730;8.006;2024-01-10T11:46:05;101056.56;;;10.94;35.63
5522;BME280;2783;48.730;8.006;2024-01-10T11:48:32;101085.41;;;11.65;35.40
5522;BME280;2783;48.730;8.006;2024-01-10T11:50:58;101072.66;;;11.36;35.03
5522;BME280;2783;48.730;8.006;2024-01-10T11:53:41;101003.88;;;11.11;34.76
5522;BME280;2783;48.730;8.006;2024-01-10T11:56:14;101074.69;;;11.68;34.96
5522;BME280;2783;48.730;8.006;2024-01-10T12:01:18;101062.16;;;10.79;35.72
5522;BME280;2783;48.730;8.006;2024-01-10T12:03:44;101068.72;;;11.08;34.84
5522;BME280;2783;48.730;8.006;2024-01-10T12:06:11;101068.25;;;10.85;36.67
5522;BME280;2783;48.730;8.006;2024-01-10T12:08:36;101056.78;;;11.29;35.90
5522;BME280;2783;48.730;8.006;2024-01-10T12:11:02;101056.91;;;11.68;35.23
5522;BME280;2783;48.730;8.006;2024-01-10T12:13:27;101047.25;;;11.63;35.62
5522;BME280;2783;48.730;8.006;2024-01-10T12:15:53;101048.91;;;11.24;35.47
5522;BME280;2783;48.730;8.006;2024-01-10T12:18:18;101046.78;;;11.43;35.09
5522;BME280;2783;48.730;8.006;2024-01-10T12:20:44;101013.88;;;11.00;35.05
5522;BME280;2783;48.730;8.006;2024-01-10T12:23:10;101063.50;;;9.88;36.24
5522;BME280;2783;48.730;8.006;2024-01-10T12:25:36;101058.19;;;9.11;38.16
5522;BME280;2783;48.730;8.006;2024-01-10T12:28:02;101051.94;;;8.07;39.09
5522;BME280;2783;48.730;8.006;2024-01-10T12:30:28;101024.06;;;7.33;41.57
5522;BME280;2783;48.730;8.006;2024-01-10T12:32:53;101040.91;;;7.09;43.36
5522;BME280;2783;48.730;8.006;2024-01-10T12:35:19;101039.19;;;6.66;43.50
5522;BME280;2783;48.730;8.006;2024-01-10T12:37:55;101053.31;;;6.42;43.87
5522;BME280;2783;48.730;8.006;2024-01-10T12:40:21;101061.19;;;6.15;44.44
5522;BME280;2783;48.730;8.006;2024-01-10T12:42:47;101061.13;;;5.91;45.57
5522;BME280;2783;48.730;8.006;2024-01-10T12:45:22;101060.16;;;5.74;46.18
5522;BME280;2783;48.730;8.006;2024-01-10T12:47:48;101064.53;;;5.66;45.98
5522;BME280;2783;48.730;8.006;2024-01-10T12:50:14;100979.00;;;5.17;45.98
5522;BME280;2783;48.730;8.006;2024-01-10T12:52:40;101068.81;;;5.42;46.01
5522;BME280;2783;48.730;8.006;2024-01-10T12:55:08;101055.47;;;5.16;47.17
5522;BME280;2783;48.730;8.006;2024-01-10T12:57:34;101058.06;;;5.05;47.66
5522;BME280;2783;48.730;8.006;2024-01-10T13:00:00;101000.66;;;4.59;47.75
5522;BME280;2783;48.730;8.006;2024-01-10T13:02:25;101053.53;;;4.85;48.40
5522;BME280;2783;48.730;8.006;2024-01-10T13:04:51;101013.59;;;4.31;48.58
5522;BME280;2783;48.730;8.006;2024-01-10T13:07:17;101061.13;;;4.47;49.38
5522;BME280;2783;48.730;8.006;2024-01-10T13:09:42;101020.56;;;4.27;50.04
5522;BME280;2783;48.730;8.006;2024-01-10T13:12:08;100976.56;;;4.10;49.11
5522;BME280;2783;48.730;8.006;2024-01-10T13:14:33;101053.28;;;4.52;49.30
5522;BME280;2783;48.730;8.006;2024-01-10T13:16:59;101054.13;;;4.49;49.93
5522;BME280;2783;48.730;8.006;2024-01-10T13:19:24;101055.88;;;4.47;49.70
5522;BME280;2783;48.730;8.006;2024-01-10T13:21:51;101049.72;;;4.47;50.91